createdAt,value
2017-10-30T00:01:19.843Z,86.85
2017-10-30T00:02:00.317Z,86.66
2017-10-30T00:02:40.810Z,86.38
2017-10-30T00:03:21.298Z,86.28
2017-10-30T00:04:01.785Z,86.47
2017-10-30T00:04:42.265Z,86.57
2017-10-30T00:05:22.745Z,86.94
2017-10-30T00:06:03.224Z,87.42
2017-10-30T00:06:43.697Z,87.52
2017-10-30T00:07:24.184Z,86.85
2017-10-30T00:08:04.665Z,86.94
2017-10-30T00:08:45.121Z,87.04
2017-10-30T00:09:25.610Z,87.32
2017-10-30T00:10:06.096Z,86.38
2017-10-30T00:10:46.585Z,86.66
2017-10-30T00:11:27.087Z,86.28
2017-10-30T00:12:07.580Z,86.57
2017-10-30T00:12:48.087Z,86.94
2017-10-30T00:13:28.551Z,86.66
2017-10-30T00:14:09.027Z,87.52
2017-10-30T00:14:49.465Z,86.85
2017-10-30T00:15:29.938Z,87.13
2017-10-30T00:16:10.417Z,87.23
2017-10-30T00:16:50.877Z,87.42
2017-10-30T00:17:31.323Z,86.76
2017-10-30T00:18:11.741Z,86.85
2017-10-30T00:18:52.242Z,87.42
2017-10-30T00:19:32.703Z,86.85
2017-10-30T00:20:13.155Z,86.76
2017-10-30T00:20:53.593Z,87.52
2017-10-30T00:21:34.076Z,87.32
2017-10-30T00:22:14.526Z,87.32
2017-10-30T00:22:54.992Z,87.23
2017-10-30T00:23:35.473Z,87.19
2017-10-30T00:24:15.916Z,87.47
2017-10-30T00:24:56.379Z,86.99
2017-10-30T00:25:36.821Z,86.9
2017-10-30T00:27:29.891Z,86.99
2017-10-30T00:28:10.305Z,87.19
2017-10-30T00:28:50.756Z,87.13
2017-10-30T00:29:31.251Z,87.47
2017-10-30T00:30:11.670Z,87.95
2017-10-30T00:30:52.168Z,87.57
2017-10-30T00:31:32.642Z,87.76
2017-10-30T00:32:13.058Z,87.76
2017-10-30T00:32:53.489Z,87.66
2017-10-30T00:33:33.974Z,87.38
2017-10-30T00:34:14.411Z,87.57
2017-10-30T00:34:54.911Z,87.38
2017-10-30T00:35:35.324Z,87.47
2017-10-30T00:37:27.880Z,87.76
2017-10-30T00:38:08.350Z,88.13
2017-10-30T00:38:48.829Z,87.42
2017-10-30T00:39:29.298Z,87.47
2017-10-30T00:40:09.784Z,87.52
2017-10-30T00:40:50.254Z,87.09
2017-10-30T00:41:30.707Z,86.9
2017-10-30T00:42:11.193Z,87.09
2017-10-30T00:42:51.683Z,87.47
2017-10-30T00:43:32.182Z,87.47
2017-10-30T00:44:12.631Z,87.66
2017-10-30T00:44:53.113Z,88.04
2017-10-30T00:45:33.580Z,87.71
2017-10-30T00:46:14.025Z,87.85
2017-10-30T00:46:54.444Z,87.42
2017-10-30T00:47:34.872Z,87.23
2017-10-30T00:49:32.473Z,87.28
2017-10-30T00:50:12.963Z,87.95
2017-10-30T00:50:53.421Z,87.38
2017-10-30T00:51:33.903Z,87.09
2017-10-30T00:52:14.350Z,87.47
2017-10-30T00:52:54.823Z,87.28
2017-10-30T00:53:35.249Z,87.19
2017-10-30T00:54:15.687Z,87.47
2017-10-30T00:54:56.171Z,87.47
2017-10-30T00:55:36.618Z,87.57
2017-10-30T00:56:17.118Z,88.04
2017-10-30T00:56:57.540Z,87.85
2017-10-30T00:58:55.175Z,87.76
2017-10-30T00:59:35.601Z,88.23
2017-10-30T01:00:16.047Z,88.42
2017-10-30T01:00:56.509Z,88.23
2017-10-30T01:01:36.956Z,88.13
2017-10-30T01:02:17.418Z,88.04
2017-10-30T01:04:15.157Z,88.13
2017-10-30T01:04:55.591Z,88.04
2017-10-30T01:05:36.049Z,88.52
2017-10-30T01:07:23.546Z,87.95
2017-10-30T01:08:04.007Z,88.13
2017-10-30T01:08:44.487Z,88.04
2017-10-30T01:09:24.973Z,88.13
2017-10-30T01:10:05.444Z,88.23
2017-10-30T01:10:45.932Z,88.13
2017-10-30T01:11:26.401Z,88.04
2017-10-30T01:12:06.876Z,88.13
2017-10-30T01:12:47.356Z,88.42
2017-10-30T01:13:27.825Z,88.52
2017-10-30T01:14:08.278Z,88.42
2017-10-30T01:14:48.722Z,88.71
2017-10-30T01:15:29.189Z,89.18
2017-10-30T01:16:09.672Z,89.28
2017-10-30T01:16:50.094Z,88.9
2017-10-30T01:17:30.528Z,88.9
2017-10-30T01:19:17.989Z,89.47
2017-10-30T01:19:58.544Z,89.47
2017-10-30T01:20:39.063Z,89.28
2017-10-30T01:21:19.483Z,89.47
2017-10-30T01:21:59.964Z,89.37
2017-10-30T01:22:40.404Z,90.14
2017-10-30T01:24:58.208Z,89.28
2017-10-30T01:25:38.671Z,89.85
2017-10-30T01:26:19.158Z,89.94
2017-10-30T01:26:59.641Z,90.23
2017-10-30T01:27:40.130Z,90.04
2017-10-30T01:28:20.628Z,89.85
2017-10-30T01:29:01.114Z,89.18
2017-10-30T01:29:41.575Z,89.85
2017-10-30T01:30:22.001Z,89.85
2017-10-30T01:32:09.470Z,90.42
2017-10-30T01:32:49.932Z,90.7
2017-10-30T01:33:30.370Z,90.52
2017-10-30T01:34:10.831Z,90.52
2017-10-30T01:34:51.263Z,90.52
2017-10-30T01:35:31.682Z,90.23
2017-10-30T01:36:12.184Z,90.04
2017-10-30T01:36:52.632Z,90.19
2017-10-30T01:37:33.112Z,90.61
2017-10-30T01:38:13.553Z,90.61
2017-10-30T01:38:53.995Z,90.61
2017-10-30T01:39:34.448Z,90.33
2017-10-30T01:40:14.851Z,90.33
2017-10-30T01:40:55.310Z,90.52
2017-10-30T01:41:35.739Z,90.7
2017-10-30T01:42:16.171Z,90.85
2017-10-30T01:42:56.607Z,90.7
2017-10-30T01:43:37.038Z,90.8
2017-10-30T01:44:17.517Z,90.33
2017-10-30T01:44:57.952Z,90.33
2017-10-30T01:45:38.443Z,90.56
2017-10-30T01:46:18.897Z,90.56
2017-10-30T01:46:59.349Z,91.37
2017-10-30T01:47:39.775Z,90.66
2017-10-30T01:48:20.274Z,90.85
2017-10-30T01:49:00.758Z,90.66
2017-10-30T01:49:41.181Z,91.13
2017-10-30T01:50:21.634Z,90.66
2017-10-30T01:51:02.102Z,90.75
2017-10-30T01:51:42.526Z,91.04
2017-10-30T01:52:22.998Z,90.56
2017-10-30T01:53:03.453Z,91.13
2017-10-30T01:53:43.858Z,90.85
2017-10-30T01:54:24.296Z,91.33
2017-10-30T01:55:04.732Z,91.13
2017-10-30T01:55:45.176Z,91.04
2017-10-30T01:56:25.635Z,90.94
2017-10-30T01:57:06.060Z,90.85
2017-10-30T01:57:46.504Z,91.04
2017-10-30T01:58:26.992Z,90.75
2017-10-30T01:59:07.437Z,91.23
2017-10-30T01:59:47.863Z,91.23
2017-10-30T02:00:28.362Z,91.13
2017-10-30T02:01:08.845Z,90.94
2017-10-30T02:01:49.235Z,91.13
2017-10-30T02:02:29.727Z,90.94
2017-10-30T02:03:10.178Z,90.94
2017-10-30T02:03:50.636Z,90.85
2017-10-30T02:04:31.117Z,90.85
2017-10-30T02:05:11.568Z,91.04
2017-10-30T02:05:51.980Z,91.04
2017-10-30T02:06:32.505Z,91.61
2017-10-30T02:07:12.936Z,90.47
2017-10-30T02:07:53.418Z,91.13
2017-10-30T02:08:33.867Z,91.13
2017-10-30T02:09:14.327Z,91.52
2017-10-30T02:09:54.783Z,91.13
2017-10-30T02:10:35.257Z,90.75
2017-10-30T02:12:22.721Z,91.13
2017-10-30T02:13:03.177Z,90.94
2017-10-30T02:13:43.651Z,91.71
2017-10-30T02:14:24.111Z,91.33
2017-10-30T02:15:04.598Z,91.8
2017-10-30T02:15:45.076Z,91.42
2017-10-30T02:16:25.560Z,91.71
2017-10-30T02:17:06.049Z,91.42
2017-10-30T02:17:46.517Z,91.61
2017-10-30T02:18:26.988Z,91.52
2017-10-30T02:19:07.434Z,91.33
2017-10-30T02:21:00.030Z,91.33
2017-10-30T02:21:40.486Z,91.8
2017-10-30T02:22:20.997Z,91.42
2017-10-30T02:23:01.469Z,91.23
2017-10-30T02:23:41.964Z,91.13
2017-10-30T02:24:22.422Z,91.13
2017-10-30T02:25:02.854Z,91.23
2017-10-30T02:25:43.316Z,91.33
2017-10-30T02:26:23.775Z,91.42
2017-10-30T02:27:04.232Z,91.23
2017-10-30T02:27:44.681Z,91.61
2017-10-30T02:29:42.338Z,91.04
2017-10-30T02:30:22.756Z,91.52
2017-10-30T02:31:03.216Z,91.42
2017-10-30T02:31:43.650Z,91.52
2017-10-30T02:32:24.051Z,91.8
2017-10-30T02:33:04.544Z,91.52
2017-10-30T02:33:44.996Z,91.42
2017-10-30T02:34:25.429Z,91.42
2017-10-30T02:35:05.904Z,91.42
2017-10-30T02:35:46.380Z,91.52
2017-10-30T02:36:26.805Z,91.52
2017-10-30T02:37:07.268Z,91.71
2017-10-30T02:37:47.745Z,91.42
2017-10-30T02:38:28.201Z,91.99
2017-10-30T02:39:08.633Z,90.75
2017-10-30T02:39:49.065Z,91.71
2017-10-30T02:40:29.504Z,91.33
2017-10-30T02:41:09.943Z,91.33
2017-10-30T02:43:07.574Z,91.04
2017-10-30T02:43:47.987Z,91.23
2017-10-30T02:44:28.428Z,91.04
2017-10-30T02:45:08.911Z,91.13
2017-10-30T02:45:49.342Z,91.23
2017-10-30T02:46:29.851Z,91.61
2017-10-30T02:47:10.258Z,91.52
2017-10-30T02:47:50.698Z,91.8
2017-10-30T02:48:31.169Z,91.61
2017-10-30T02:49:11.646Z,91.52
2017-10-30T02:49:52.199Z,90.75
2017-10-30T02:50:32.579Z,91.33
2017-10-30T02:51:13.024Z,91.33
2017-10-30T02:51:53.443Z,91.13
2017-10-30T02:52:33.912Z,91.71
2017-10-30T02:53:14.294Z,91.61
2017-10-30T02:53:54.778Z,91.42
2017-10-30T02:54:35.196Z,91.52
2017-10-30T02:56:47.906Z,91.71
2017-10-30T02:57:28.437Z,91.71
2017-10-30T02:58:08.908Z,91.52
2017-10-30T02:58:49.399Z,91.33
2017-10-30T02:59:29.875Z,91.61
2017-10-30T03:00:10.385Z,91.33
2017-10-30T03:00:50.850Z,91.71
2017-10-30T03:01:31.320Z,91.99
2017-10-30T03:02:11.803Z,91.52
2017-10-30T03:02:52.269Z,91.33
2017-10-30T03:03:32.733Z,91.8
2017-10-30T03:04:13.174Z,91.71
2017-10-30T03:04:53.635Z,91.71
2017-10-30T03:05:34.106Z,91.42
2017-10-30T03:06:14.536Z,91.52
2017-10-30T03:06:55.009Z,91.23
2017-10-30T03:07:35.487Z,91.33
2017-10-30T03:09:33.102Z,91.8
2017-10-30T03:10:13.578Z,92.27
2017-10-30T03:10:54.058Z,91.52
2017-10-30T03:11:34.537Z,91.42
2017-10-30T03:12:15.012Z,91.23
2017-10-30T03:12:55.546Z,92.27
2017-10-30T03:13:35.966Z,92.08
2017-10-30T03:14:16.439Z,92.08
2017-10-30T03:14:56.929Z,92.08
2017-10-30T03:15:37.409Z,92.18
2017-10-30T03:16:17.893Z,91.71
2017-10-30T03:16:58.375Z,92.08
2017-10-30T03:17:38.858Z,92.18
2017-10-30T03:18:19.350Z,91.8
2017-10-30T03:20:32.109Z,91.89
2017-10-30T03:21:12.537Z,91.8
2017-10-30T03:21:52.987Z,92.18
2017-10-30T03:22:33.485Z,91.99
2017-10-30T03:24:31.073Z,92.27
2017-10-30T03:25:11.518Z,91.33
2017-10-30T03:25:52.010Z,91.89
2017-10-30T03:26:32.494Z,92.27
2017-10-30T03:27:12.987Z,92.18
2017-10-30T03:27:53.451Z,91.99
2017-10-30T03:28:33.884Z,92.66
2017-10-30T03:30:26.478Z,91.99
2017-10-30T03:31:06.917Z,92.56
2017-10-30T03:31:47.364Z,92.27
2017-10-30T03:32:27.855Z,92.37
2017-10-30T03:33:08.274Z,92.18
2017-10-30T03:35:21.026Z,92.27
2017-10-30T03:36:01.437Z,92.46
2017-10-30T03:36:41.922Z,93.23
2017-10-30T03:37:22.365Z,92.46
2017-10-30T03:38:02.813Z,92.37
2017-10-30T03:38:43.273Z,92.85
2017-10-30T03:39:23.711Z,92.8
2017-10-30T03:40:04.172Z,92.75
2017-10-30T03:40:44.621Z,92.8
2017-10-30T03:41:25.047Z,92.85
2017-10-30T03:42:05.504Z,92.94
2017-10-30T03:42:45.993Z,92.71
2017-10-30T03:43:26.419Z,92.66
2017-10-30T03:44:06.873Z,92.42
2017-10-30T03:44:47.326Z,92.75
2017-10-30T03:45:27.753Z,92.18
2017-10-30T03:47:40.440Z,93.23
2017-10-30T03:48:20.891Z,92.94
2017-10-30T03:49:01.369Z,92.66
2017-10-30T03:49:41.823Z,92.56
2017-10-30T03:50:22.289Z,92.18
2017-10-30T03:51:02.750Z,92.66
2017-10-30T03:51:43.203Z,92.99
2017-10-30T03:52:23.660Z,92.71
2017-10-30T03:53:04.126Z,92.75
2017-10-30T03:55:21.883Z,92.42
2017-10-30T03:56:02.386Z,92.9
2017-10-30T03:56:42.873Z,92.75
2017-10-30T03:57:23.352Z,92.71
2017-10-30T03:58:03.825Z,92.85
2017-10-30T03:58:44.302Z,92.66
2017-10-30T03:59:24.773Z,92.85
2017-10-30T04:00:05.221Z,92.94
2017-10-30T04:00:45.692Z,92.56
2017-10-30T04:01:26.148Z,92.85
2017-10-30T04:03:13.607Z,92.61
2017-10-30T04:03:54.123Z,93.32
2017-10-30T04:04:34.550Z,92.9
2017-10-30T04:05:15.029Z,92.99
2017-10-30T04:05:55.496Z,93.23
2017-10-30T04:06:35.964Z,93.37
2017-10-30T04:07:16.455Z,93.37
2017-10-30T04:07:56.945Z,93.27
2017-10-30T04:08:37.424Z,92.99
2017-10-30T04:09:17.914Z,93.18
2017-10-30T04:09:58.376Z,93.41
2017-10-30T04:10:38.837Z,93.41
2017-10-30T04:11:19.302Z,93.37
2017-10-30T04:11:59.736Z,93.46
2017-10-30T04:12:40.196Z,92.8
2017-10-30T04:13:20.651Z,93.18
2017-10-30T04:14:01.104Z,93.23
2017-10-30T04:14:41.601Z,93.41
2017-10-30T04:15:22.081Z,93.08
2017-10-30T04:16:02.532Z,93.41
2017-10-30T04:16:42.988Z,93.32
2017-10-30T04:18:30.468Z,93.41
2017-10-30T04:19:10.945Z,93.32
2017-10-30T04:19:51.416Z,93.37
2017-10-30T04:20:31.871Z,93.65
2017-10-30T04:21:12.357Z,93.18
2017-10-30T04:21:52.781Z,93.32
2017-10-30T04:22:33.273Z,93.41
2017-10-30T04:23:13.734Z,92.99
2017-10-30T04:23:54.162Z,93.37
2017-10-30T04:24:34.656Z,93.46
2017-10-30T04:25:15.073Z,93.18
2017-10-30T04:25:55.593Z,93.37
2017-10-30T04:26:36.019Z,93.23
2017-10-30T04:27:16.452Z,93.32
2017-10-30T04:27:56.910Z,92.94
2017-10-30T04:28:37.366Z,93.08
2017-10-30T04:29:17.820Z,93.56
2017-10-30T04:29:58.292Z,93.23
2017-10-30T04:30:38.765Z,93.37
2017-10-30T04:31:19.244Z,93.56
2017-10-30T04:31:59.695Z,93.23
2017-10-30T04:32:40.182Z,93.27
2017-10-30T04:33:20.604Z,93.37
2017-10-30T04:34:01.041Z,93.27
2017-10-30T04:34:41.541Z,92.9
2017-10-30T04:35:21.963Z,93.94
2017-10-30T04:36:02.402Z,93.46
2017-10-30T04:36:42.887Z,94.13
2017-10-30T04:37:23.287Z,94.32
2017-10-30T04:38:03.778Z,94.42
2017-10-30T04:38:44.232Z,93.84
2017-10-30T04:39:24.697Z,94.23
2017-10-30T04:40:05.178Z,94.03
2017-10-30T04:40:45.647Z,94.23
2017-10-30T04:41:26.081Z,94.23
2017-10-30T04:42:06.512Z,94.03
2017-10-30T04:44:19.252Z,94.42
2017-10-30T04:44:59.647Z,94.46
2017-10-30T04:45:40.017Z,94.89
2017-10-30T04:46:20.484Z,94.13
2017-10-30T04:47:00.992Z,94.13
2017-10-30T04:47:41.407Z,93.94
2017-10-30T04:48:21.908Z,94.23
2017-10-30T04:49:02.382Z,94.08
2017-10-30T04:49:42.788Z,93.89
2017-10-30T04:50:23.238Z,93.79
2017-10-30T04:51:03.693Z,93.46
2017-10-30T04:51:44.161Z,94.23
2017-10-30T04:52:24.601Z,94.32
2017-10-30T04:54:37.304Z,94.32
2017-10-30T04:55:17.807Z,94.32
2017-10-30T04:55:58.280Z,93.79
2017-10-30T04:56:38.775Z,93.79
2017-10-30T04:57:19.226Z,94.08
2017-10-30T04:57:59.689Z,93.51
2017-10-30T04:58:40.187Z,93.99
2017-10-30T04:59:20.643Z,93.99
2017-10-30T05:01:08.435Z,93.79
2017-10-30T05:01:48.820Z,93.99
2017-10-30T05:02:29.283Z,93.7
2017-10-30T05:03:09.723Z,94.08
2017-10-30T05:03:50.246Z,93.7
2017-10-30T05:04:30.727Z,94.18
2017-10-30T05:05:11.139Z,93.99
2017-10-30T05:05:51.571Z,93.99
2017-10-30T05:06:32.020Z,93.94
2017-10-30T05:07:12.451Z,94.56
2017-10-30T05:07:52.913Z,93.99
2017-10-30T05:08:33.340Z,93.79
2017-10-30T05:09:13.828Z,94.42
2017-10-30T05:09:54.253Z,94.23
2017-10-30T05:10:34.792Z,94.37
2017-10-30T05:11:15.152Z,94.37
2017-10-30T05:11:56.159Z,94.46
2017-10-30T05:12:36.615Z,93.94
2017-10-30T05:14:55.356Z,94.37
2017-10-30T05:15:35.844Z,94.32
2017-10-30T05:16:16.300Z,94.46
2017-10-30T05:16:56.798Z,94.46
2017-10-30T05:17:37.261Z,94.18
2017-10-30T05:18:17.756Z,93.46
2017-10-30T05:18:58.246Z,93.99
2017-10-30T05:19:38.729Z,94.32
2017-10-30T05:20:19.228Z,94.7
2017-10-30T05:20:59.692Z,93.79
2017-10-30T05:21:40.168Z,93.89
2017-10-30T05:22:20.656Z,93.94
2017-10-30T05:23:01.167Z,94.74
2017-10-30T05:23:41.651Z,94.13
2017-10-30T05:24:22.140Z,94.6
2017-10-30T05:25:02.623Z,95.17
2017-10-30T05:25:43.116Z,95.36
2017-10-30T05:26:23.583Z,94.89
2017-10-30T05:27:04.042Z,94.51
2017-10-30T05:27:44.521Z,94.42
2017-10-30T05:28:25.025Z,94.51
2017-10-30T05:29:05.518Z,94.7
2017-10-30T05:29:45.969Z,95.36
2017-10-30T05:30:26.434Z,94.89
2017-10-30T05:31:06.923Z,94.79
2017-10-30T05:31:47.412Z,96.98
2017-10-30T05:32:27.884Z,94.79
2017-10-30T05:33:08.358Z,96.69
2017-10-30T05:33:48.826Z,94.98
2017-10-30T05:34:29.271Z,94.89
2017-10-30T05:35:09.727Z,94.79
2017-10-30T05:37:27.537Z,95.55
2017-10-30T05:38:07.974Z,94.79
2017-10-30T05:38:48.449Z,95.27
2017-10-30T05:39:28.947Z,95.27
2017-10-30T05:40:09.412Z,95.08
2017-10-30T05:40:49.882Z,95.17
2017-10-30T05:43:07.765Z,95.36
2017-10-30T05:43:48.148Z,95.08
2017-10-30T05:44:28.592Z,95.55
2017-10-30T05:45:09.045Z,95.65
2017-10-30T05:45:49.501Z,95.27
2017-10-30T05:46:29.972Z,95.08
2017-10-30T05:47:10.433Z,94.89
2017-10-30T05:47:50.875Z,95.55
2017-10-30T05:48:31.295Z,95.17
2017-10-30T05:49:11.837Z,95.17
2017-10-30T05:49:52.370Z,94.79
2017-10-30T05:50:32.627Z,94.79
2017-10-30T05:51:13.086Z,95.27
2017-10-30T05:51:53.539Z,95.08
2017-10-30T05:52:33.980Z,95.17
2017-10-30T05:53:14.423Z,94.89
2017-10-30T05:53:54.876Z,95.08
2017-10-30T05:54:35.333Z,95.55
2017-10-30T05:55:15.808Z,95.08
2017-10-30T05:55:56.249Z,95.27
2017-10-30T05:56:36.677Z,94.7
2017-10-30T05:57:17.164Z,95.08
2017-10-30T05:57:57.553Z,95.17
2017-10-30T06:00:10.272Z,94.89
2017-10-30T06:00:50.700Z,95.36
2017-10-30T06:01:31.101Z,95.27
2017-10-30T06:02:12.533Z,95.46
2017-10-30T06:02:52.938Z,95.17
2017-10-30T06:03:33.389Z,95.08
2017-10-30T06:04:13.852Z,95.08
2017-10-30T06:04:54.309Z,95.46
2017-10-30T06:05:34.789Z,95.84
2017-10-30T06:06:15.282Z,95.17
2017-10-30T06:06:55.762Z,95.08
2017-10-30T06:07:36.207Z,94.98
2017-10-30T06:08:16.680Z,95.55
2017-10-30T06:08:57.134Z,95.17
2017-10-30T06:09:37.568Z,95.27
2017-10-30T06:10:18.005Z,95.46
2017-10-30T06:10:58.452Z,95.27
2017-10-30T06:11:38.931Z,95.08
2017-10-30T06:12:19.382Z,94.98
2017-10-30T06:12:59.826Z,95.65
2017-10-30T06:13:40.282Z,96.12
2017-10-30T06:14:20.744Z,96.03
2017-10-30T06:15:01.170Z,96.03
2017-10-30T06:15:41.611Z,96.03
2017-10-30T06:16:22.130Z,96.03
2017-10-30T06:17:02.631Z,95.84
2017-10-30T06:17:43.098Z,96.03
2017-10-30T06:18:23.563Z,95.94
2017-10-30T06:19:04.029Z,96.12
2017-10-30T06:19:44.467Z,95.75
2017-10-30T06:20:24.909Z,95.17
2017-10-30T06:21:05.392Z,95.27
2017-10-30T06:21:45.851Z,95.46
2017-10-30T06:22:26.358Z,95.08
2017-10-30T06:23:06.811Z,95.27
2017-10-30T06:23:47.262Z,95.36
2017-10-30T06:24:27.733Z,95.27
2017-10-30T06:25:08.150Z,95.55
2017-10-30T06:25:48.606Z,95.27
2017-10-30T06:26:29.059Z,95.12
2017-10-30T06:27:09.545Z,95.22
2017-10-30T06:27:49.995Z,94.74
2017-10-30T06:28:30.460Z,94.93
2017-10-30T06:29:10.917Z,95.03
2017-10-30T06:29:51.367Z,95.41
2017-10-30T06:30:31.806Z,94.65
2017-10-30T06:31:12.271Z,94.56
2017-10-30T06:32:59.728Z,94.27
2017-10-30T06:33:40.191Z,94.18
2017-10-30T06:34:20.652Z,94.46
2017-10-30T06:35:01.083Z,94.08
2017-10-30T06:36:48.549Z,94.56
2017-10-30T06:37:29.061Z,94.37
2017-10-30T06:38:09.542Z,93.89
2017-10-30T06:38:50.041Z,93.79
2017-10-30T06:39:30.514Z,93.41
2017-10-30T06:40:10.975Z,93.51
2017-10-30T06:40:51.524Z,94.08
2017-10-30T06:41:32.007Z,94.18
2017-10-30T06:42:12.506Z,93.79
2017-10-30T06:42:53.010Z,93.7
2017-10-30T06:43:33.518Z,93.79
2017-10-30T06:44:14.044Z,93.89
2017-10-30T06:44:54.512Z,94.18
2017-10-30T06:45:35.053Z,94.46
2017-10-30T06:46:15.539Z,94.46
2017-10-30T06:46:56.048Z,94.56
2017-10-30T06:47:36.527Z,94.37
2017-10-30T06:48:16.992Z,94.37
2017-10-30T06:48:57.509Z,93.79
2017-10-30T06:49:38.020Z,93.99
2017-10-30T06:50:18.506Z,93.99
2017-10-30T06:50:59.036Z,93.7
2017-10-30T06:51:39.506Z,93.41
2017-10-30T06:52:19.994Z,93.79
2017-10-30T06:53:00.524Z,94.18
2017-10-30T06:53:41.052Z,94.03
2017-10-30T06:54:21.545Z,93.32
2017-10-30T06:55:02.082Z,93.32
2017-10-30T06:55:42.552Z,93.23
2017-10-30T06:56:23.009Z,93.04
2017-10-30T06:57:03.454Z,92.75
2017-10-30T06:57:43.930Z,92.8
2017-10-30T06:58:24.369Z,93.04
2017-10-30T06:59:04.825Z,92.51
2017-10-30T06:59:45.267Z,92.32
2017-10-30T07:01:32.733Z,92.03
2017-10-30T07:02:13.248Z,91.47
2017-10-30T07:02:53.680Z,91.08
2017-10-30T07:03:34.167Z,91.94
2017-10-30T07:04:14.643Z,91.28
2017-10-30T07:04:55.111Z,92.22
2017-10-30T07:05:35.587Z,91.85
2017-10-30T07:06:16.067Z,92.13
2017-10-30T07:06:57.124Z,92.32
2017-10-30T07:07:37.595Z,92.51
2017-10-30T07:09:30.131Z,92.13
2017-10-30T07:10:10.617Z,92.03
2017-10-30T07:10:51.093Z,92.03
2017-10-30T07:11:31.610Z,92.22
2017-10-30T07:13:19.070Z,92.22
2017-10-30T07:13:59.522Z,92.22
2017-10-30T07:14:40.007Z,92.03
2017-10-30T07:15:20.456Z,91.28
2017-10-30T07:17:13.030Z,92.32
2017-10-30T07:17:53.474Z,92.13
2017-10-30T07:18:33.935Z,91.94
2017-10-30T07:20:31.569Z,92.8
2017-10-30T07:21:12.066Z,92.61
2017-10-30T07:21:52.570Z,92.03
2017-10-30T07:22:33.003Z,91.56
2017-10-30T07:23:13.530Z,91.85
2017-10-30T07:23:53.992Z,91.47
2017-10-30T07:25:41.506Z,91.75
2017-10-30T07:26:21.959Z,91.47
2017-10-30T07:27:02.530Z,90.99
2017-10-30T07:27:42.902Z,91.08
2017-10-30T07:28:23.351Z,91.22
2017-10-30T07:29:03.817Z,90.37
2017-10-30T07:29:44.261Z,90.7
2017-10-30T07:30:24.708Z,90.28
2017-10-30T07:31:05.188Z,89.99
2017-10-30T07:31:45.644Z,89.23
2017-10-30T07:32:26.085Z,89.7
2017-10-30T07:33:06.556Z,89.04
2017-10-30T07:35:19.281Z,88.7
2017-10-30T07:35:59.744Z,88.23
2017-10-30T07:36:40.226Z,88.04
2017-10-30T07:37:20.685Z,86.99
2017-10-30T07:38:01.211Z,86.22
2017-10-30T07:38:41.710Z,86.42
2017-10-30T07:39:22.176Z,86.42
2017-10-30T07:40:02.601Z,85.94
2017-10-30T07:40:43.082Z,85.8
2017-10-30T07:41:23.548Z,85.99
2017-10-30T07:43:16.119Z,85.8
2017-10-30T07:43:56.685Z,85.56
2017-10-30T07:44:37.161Z,85.37
2017-10-30T07:45:18.173Z,86.04
2017-10-30T07:45:58.585Z,86.04
2017-10-30T07:46:39.049Z,85.94
2017-10-30T07:47:19.510Z,86.22
2017-10-30T07:47:59.984Z,86.04
2017-10-30T07:48:40.442Z,86.13
2017-10-30T07:50:33.001Z,86.22
2017-10-30T07:51:13.554Z,86.9
2017-10-30T07:51:53.992Z,87.08
2017-10-30T07:54:06.777Z,88.18
2017-10-30T07:54:47.255Z,87.75
2017-10-30T07:55:27.720Z,87.65
2017-10-30T07:56:08.195Z,87.56
2017-10-30T07:56:48.639Z,87.37
2017-10-30T07:57:29.090Z,87.37
2017-10-30T07:58:09.542Z,87.27
2017-10-30T07:58:50.002Z,87.27
2017-10-30T07:59:30.494Z,87.85
2017-10-30T08:00:10.946Z,87.75
2017-10-30T08:00:51.394Z,88.13
2017-10-30T08:01:31.828Z,87.71
2017-10-30T08:02:12.284Z,88.51
2017-10-30T08:04:30.067Z,88.23
2017-10-30T08:05:10.528Z,87.75
2017-10-30T08:05:51.022Z,87.65
2017-10-30T08:06:31.481Z,87.85
2017-10-30T08:07:11.948Z,87.75
2017-10-30T08:07:52.431Z,87.56
2017-10-30T08:08:32.903Z,87.46
2017-10-30T08:09:13.368Z,87.65
2017-10-30T08:09:53.840Z,87.65
2017-10-30T08:11:41.361Z,87.75
2017-10-30T08:12:21.834Z,87.85
2017-10-30T08:13:02.335Z,88.51
2017-10-30T08:13:42.825Z,88.32
2017-10-30T08:14:23.270Z,87.85
2017-10-30T08:15:03.742Z,88.04
2017-10-30T08:15:44.272Z,87.75
2017-10-30T08:16:24.685Z,87.65
2017-10-30T08:17:05.125Z,86.99
2017-10-30T08:17:45.581Z,87.18
2017-10-30T08:18:26.063Z,87.08
2017-10-30T08:19:06.519Z,86.99
2017-10-30T08:19:47.054Z,87.13
2017-10-30T08:20:27.546Z,86.46
2017-10-30T08:21:08.015Z,86.55
2017-10-30T08:21:48.458Z,86.27
2017-10-30T08:22:28.914Z,86.55
2017-10-30T08:23:09.333Z,86.55
2017-10-30T08:23:49.838Z,86.46
2017-10-30T08:24:30.313Z,86.36
2017-10-30T08:25:10.782Z,86.08
2017-10-30T08:25:51.227Z,85.89
2017-10-30T08:26:32.187Z,85.51
2017-10-30T08:27:12.342Z,85.32
2017-10-30T08:27:52.835Z,85.41
2017-10-30T08:28:34.113Z,85.32
2017-10-30T08:29:14.789Z,85.51
2017-10-30T08:29:55.312Z,85.03
2017-10-30T08:30:35.752Z,85.51
2017-10-30T08:31:16.186Z,84.65
2017-10-30T08:33:13.829Z,84.98
2017-10-30T08:33:54.307Z,84.98
2017-10-30T08:34:34.772Z,84.98
2017-10-30T08:35:15.255Z,85.17
2017-10-30T08:35:55.679Z,85.17
2017-10-30T08:36:36.110Z,84.88
2017-10-30T08:37:16.595Z,84.22
2017-10-30T08:37:57.030Z,84.22
2017-10-30T08:38:37.508Z,84.22
2017-10-30T08:40:55.315Z,84.5
2017-10-30T08:41:35.796Z,84.12
2017-10-30T08:42:16.299Z,84.31
2017-10-30T08:42:56.808Z,84.6
2017-10-30T08:43:37.268Z,83.84
2017-10-30T08:44:17.749Z,84.6
2017-10-30T08:44:58.252Z,84.03
2017-10-30T08:45:38.764Z,83.74
2017-10-30T08:46:19.222Z,83.93
2017-10-30T08:46:59.707Z,84.31
2017-10-30T08:47:40.203Z,83.93
2017-10-30T08:48:20.734Z,83.84
2017-10-30T08:49:01.228Z,83.93
2017-10-30T08:49:41.706Z,83.4
2017-10-30T08:50:22.260Z,83.59
2017-10-30T08:51:02.680Z,82.92
2017-10-30T08:51:43.172Z,82.92
2017-10-30T08:52:23.682Z,82.79
2017-10-30T08:53:04.152Z,82.89
2017-10-30T08:53:44.645Z,82.98
2017-10-30T08:54:25.125Z,82.89
2017-10-30T08:55:05.608Z,82.79
2017-10-30T08:55:46.106Z,82.73
2017-10-30T08:56:26.622Z,82.26
2017-10-30T08:57:07.159Z,83.12
2017-10-30T08:57:47.661Z,83.02
2017-10-30T08:58:28.183Z,82.54
2017-10-30T08:59:08.677Z,82.07
2017-10-30T08:59:49.172Z,81.97
2017-10-30T09:00:29.640Z,82.26
2017-10-30T09:01:10.127Z,82.73
2017-10-30T09:01:50.601Z,82.07
2017-10-30T09:02:31.109Z,81.49
2017-10-30T09:03:11.547Z,81.49
2017-10-30T09:03:52.040Z,81.68
2017-10-30T09:04:32.487Z,81.12
2017-10-30T09:05:12.910Z,81.78
2017-10-30T09:05:53.390Z,81.68
2017-10-30T09:06:33.831Z,81.59
2017-10-30T09:07:14.301Z,81.4
2017-10-30T09:07:54.796Z,81.88
2017-10-30T09:08:35.273Z,81.88
2017-10-30T09:09:15.760Z,81.97
2017-10-30T09:09:56.215Z,81.21
2017-10-30T09:10:36.723Z,82.07
2017-10-30T09:11:17.199Z,81.3
2017-10-30T09:13:09.752Z,81.4
2017-10-30T09:13:50.217Z,81.06
2017-10-30T09:14:30.696Z,81.12
2017-10-30T09:15:11.215Z,81.49
2017-10-30T09:15:51.698Z,81.25
2017-10-30T09:16:32.145Z,81.35
2017-10-30T09:17:12.636Z,80.96
2017-10-30T09:17:53.135Z,80.3
2017-10-30T09:18:33.607Z,80.11
2017-10-30T09:19:14.078Z,80.2
2017-10-30T09:19:54.590Z,79.63
2017-10-30T09:20:35.091Z,80.39
2017-10-30T09:21:15.591Z,80.01
2017-10-30T09:21:56.102Z,80.2
2017-10-30T09:22:36.665Z,79.91
2017-10-30T09:23:17.136Z,79.82
2017-10-30T09:23:57.630Z,80.01
2017-10-30T09:24:38.146Z,79.91
2017-10-30T09:25:18.616Z,79.72
2017-10-30T09:25:59.117Z,78.86
2017-10-30T09:26:39.608Z,78.96
2017-10-30T09:27:20.108Z,78.86
2017-10-30T09:28:00.574Z,78.86
2017-10-30T09:28:41.076Z,79.35
2017-10-30T09:29:21.546Z,78.77
2017-10-30T09:30:02.068Z,78.58
2017-10-30T09:30:42.582Z,78.33
2017-10-30T09:31:23.081Z,77.57
2017-10-30T09:32:03.586Z,77.86
2017-10-30T09:32:44.091Z,78.05
2017-10-30T09:33:24.560Z,77.47
2017-10-30T09:34:05.061Z,77.76
2017-10-30T09:34:45.537Z,77.28
2017-10-30T09:35:26.010Z,77
2017-10-30T09:36:06.496Z,77.57
2017-10-30T09:36:47.003Z,78.23
2017-10-30T09:37:27.466Z,77.38
2017-10-30T09:38:07.926Z,78.05
2017-10-30T09:38:48.360Z,77.19
2017-10-30T09:39:28.792Z,77.19
2017-10-30T09:40:09.239Z,77.38
2017-10-30T09:40:49.713Z,77.19
2017-10-30T09:41:30.215Z,76.46
2017-10-30T09:42:10.698Z,77
2017-10-30T09:42:51.142Z,76.56
2017-10-30T09:43:31.591Z,75.7
2017-10-30T09:44:12.075Z,75.85
2017-10-30T09:44:52.532Z,76.37
2017-10-30T09:47:05.259Z,76.33